HRHO2: North Canadian River

Data processed at Wed May 22 2019 23:50


All information presented herein is the property of the government of the United States of America and may be revised or deleted at any time without prior notice.
Dissemination of this information without the expressed written consent of the Public Affairs Office, Tulsa District U.S. Army Corps of Engineers is strictly prohibited.
These data are gathered electronically and, as presented, have not undergone any form of quality control. These data are not guaranteed to be valid or correct.
Go to home page.
Go to station list.
Go to home page.

Upstream stations:

Downstream station:
Previous Day
Next Day
Current Day
    
SHEF ID:       HRHO2     North Canadian River near Harrah
STATION TYPE:  
Regulating: Stage =    15.00, Flow =    10547

                STAGE  RIV-FLOW  WTR-TEMP   DIS-OXY        PH   CONDUCT  BAT-LOAD
                   ft       cfs         F      mg/l        su   umho/cm      volt
              Ccp-Rev   Ccp-Rev   Ccp-Rev   Ccp-Rev   Ccp-Rev   Ccp-Rev   Ccp-Rev
(US/Central)
05/22 00:00     18.00     15558     66.07     81.95      7.75       250     12.65
05/22 01:00     17.93     15422     66.00     81.16      7.76       255     12.65
05/22 02:00     17.83     15229     65.93     80.43      7.76       258     12.65
05/22 03:00     17.65     14884     65.86     80.17      7.74       263     12.65
05/22 04:00     17.41     14428     65.77     79.93      7.72       266     12.65
05/22 05:00     17.26     14142     65.68     79.97      7.73       272     12.57
05/22 06:00     17.03     13711     65.57     79.61      7.71       277     12.57
05/22 07:00     16.68     13133     65.48     79.27      7.70       281     12.57
05/22 08:00     16.39     12668     65.44     79.09      7.69       283     12.57
05/22 09:00     16.06     12150     65.46     78.59      7.70       288     12.65
05/22 10:00     15.82     11779     65.61     77.34      7.70       290     12.81
05/22 11:00     15.53     11338     65.84     75.63      7.70       290     12.89
05/22 12:00     15.26     10934     66.24     73.52      7.81       290     13.05
05/22 13:00     15.04     10606     66.72     71.00      7.71       289     13.29
05/22 14:00     14.85     10326     67.15     68.57      7.72       286     13.29
05/22 15:00     14.73     10152     67.53     65.68      7.73       282     13.21
05/22 16:00     14.74     10166     67.84     63.15      7.74       277     12.97
05/22 17:00     14.71     10123     68.05     61.90      7.75       275     12.97
05/22 18:00     14.71     10123     68.41     60.26      7.74       276     12.97
05/22 19:00     14.81     10268     68.54     59.76      7.74       281     12.97
05/22 20:00     14.89     10385     68.56     59.68      7.72       290     12.81
05/22 21:00     14.92     10429     68.49     59.82      7.73       300     12.73
05/22 22:00     15.05     10621     68.40     60.88      7.70       319     12.65
05/22 23:00     15.12     10724     68.27     61.94      7.67       341     12.65